createdAt,value
2018-06-16T00:00:10.472Z,8.63
2018-06-16T00:02:39.945Z,11.93
2018-06-16T00:05:09.422Z,12.63
2018-06-16T00:07:38.881Z,11.20
2018-06-16T00:10:08.253Z,10.67
2018-06-16T00:12:37.648Z,10.70
2018-06-16T00:15:07.089Z,11.17
2018-06-16T00:17:36.548Z,12.70
2018-06-16T00:20:06.016Z,12.17
2018-06-16T00:22:35.441Z,11.43
2018-06-16T00:25:04.886Z,12.30
2018-06-16T00:27:34.369Z,12.33
2018-06-16T00:30:03.766Z,17.70
2018-06-16T00:32:33.295Z,13.37
2018-06-16T00:35:08.826Z,12.10
2018-06-16T00:37:38.193Z,11.00
2018-06-16T00:40:07.581Z,12.37
2018-06-16T00:42:36.960Z,11.60
2018-06-16T00:45:06.367Z,11.00
2018-06-16T00:47:35.762Z,11.63
2018-06-16T00:50:05.152Z,16.20
2018-06-16T00:52:34.533Z,11.50
2018-06-16T00:55:03.945Z,11.43
2018-06-16T00:57:48.927Z,13.17
2018-06-16T01:00:19.291Z,10.30
2018-06-16T01:02:49.184Z,10.50
2018-06-16T01:05:18.620Z,12.37
2018-06-16T01:07:48.073Z,13.10
2018-06-16T01:10:17.533Z,18.97
2018-06-16T01:12:46.973Z,14.33
2018-06-16T01:15:16.349Z,14.90
2018-06-16T01:17:45.739Z,13.80
2018-06-16T01:20:15.176Z,14.87
2018-06-16T01:22:44.614Z,15.67
2018-06-16T01:25:13.965Z,14.63
2018-06-16T01:27:43.384Z,15.10
2018-06-16T01:30:12.837Z,18.10
2018-06-16T01:32:42.278Z,15.03
2018-06-16T01:35:11.802Z,14.80
2018-06-16T01:37:41.215Z,15.23
2018-06-16T01:40:10.604Z,17.03
2018-06-16T01:42:40.089Z,17.00
2018-06-16T01:45:09.507Z,17.77
2018-06-16T01:47:38.955Z,14.63
2018-06-16T01:50:08.419Z,16.23
2018-06-16T01:52:37.824Z,14.93
2018-06-16T01:55:07.243Z,15.93
2018-06-16T01:57:36.697Z,16.90
2018-06-16T02:00:06.184Z,18.43
2018-06-16T02:02:35.611Z,16.53
2018-06-16T02:05:05.091Z,17.70
2018-06-16T02:07:34.509Z,17.07
2018-06-16T02:10:03.972Z,21.73
2018-06-16T02:12:33.391Z,18.03
2018-06-16T02:15:02.841Z,20.20
2018-06-16T02:17:32.184Z,16.83
2018-06-16T02:20:01.604Z,24.67
2018-06-16T02:22:31.005Z,24.37
2018-06-16T02:25:00.431Z,16.77
2018-06-16T02:27:29.877Z,20.73
2018-06-16T02:29:59.295Z,17.70
2018-06-16T02:32:28.635Z,18.63
2018-06-16T02:34:58.122Z,16.43
2018-06-16T02:37:27.548Z,18.30
2018-06-16T02:39:56.977Z,18.50
2018-06-16T02:42:26.355Z,22.20
2018-06-16T02:44:55.800Z,19.63
2018-06-16T02:47:25.291Z,19.27
2018-06-16T02:49:54.686Z,17.50
2018-06-16T02:52:24.113Z,17.90
2018-06-16T02:54:53.572Z,22.37
2018-06-16T02:57:23.008Z,20.30
2018-06-16T02:59:52.391Z,17.97
2018-06-16T03:02:21.771Z,23.10
2018-06-16T03:04:51.206Z,18.97
2018-06-16T03:07:20.634Z,19.17
2018-06-16T03:09:50.051Z,18.47
2018-06-16T03:12:19.452Z,18.60
2018-06-16T03:14:48.904Z,24.30
2018-06-16T03:17:18.276Z,17.73
2018-06-16T03:19:47.705Z,18.30
2018-06-16T03:22:17.152Z,18.67
2018-06-16T03:24:46.514Z,16.67
2018-06-16T03:27:15.887Z,18.50
2018-06-16T03:29:45.334Z,20.90
2018-06-16T03:32:14.766Z,18.87
2018-06-16T03:34:44.192Z,22.43
2018-06-16T03:37:13.613Z,20.83
2018-06-16T03:39:43.002Z,18.23
2018-06-16T03:42:12.435Z,18.87
2018-06-16T03:44:41.849Z,17.83
2018-06-16T03:47:11.218Z,18.40
2018-06-16T03:49:40.771Z,25.10
2018-06-16T03:52:10.289Z,17.77
2018-06-16T03:54:39.771Z,20.40
2018-06-16T03:57:09.195Z,19.10
2018-06-16T03:59:38.577Z,18.47
2018-06-16T04:02:07.954Z,21.37
2018-06-16T04:04:37.383Z,21.20
2018-06-16T04:07:06.772Z,19.30
2018-06-16T04:09:36.167Z,18.47
2018-06-16T04:12:05.645Z,18.07
2018-06-16T04:14:35.055Z,21.47
2018-06-16T04:17:20.547Z,18.17
2018-06-16T04:19:53.524Z,20.33
2018-06-16T04:22:22.922Z,20.00
2018-06-16T04:24:52.263Z,22.77
2018-06-16T04:27:21.672Z,21.00
2018-06-16T04:29:51.972Z,17.80
2018-06-16T04:32:21.405Z,19.00
2018-06-16T04:34:50.786Z,18.53
2018-06-16T04:37:20.260Z,17.17
2018-06-16T04:39:49.672Z,20.60
2018-06-16T04:42:19.162Z,24.23
2018-06-16T04:44:48.600Z,18.47
2018-06-16T04:47:17.996Z,22.80
2018-06-16T04:49:47.410Z,24.90
2018-06-16T04:52:16.783Z,17.40
2018-06-16T04:54:46.222Z,17.57
2018-06-16T04:57:15.596Z,18.10
2018-06-16T04:59:44.990Z,19.63
2018-06-16T05:02:14.424Z,22.00
2018-06-16T05:04:43.827Z,17.23
2018-06-16T05:07:13.244Z,22.20
2018-06-16T05:09:42.661Z,21.53
2018-06-16T05:12:12.104Z,20.70
2018-06-16T05:14:41.615Z,21.87
2018-06-16T05:17:11.061Z,19.53
2018-06-16T05:19:40.440Z,19.33
2018-06-16T05:22:09.845Z,20.80
2018-06-16T05:24:39.313Z,18.80
2018-06-16T05:27:08.719Z,18.53
2018-06-16T05:29:38.119Z,21.70
2018-06-16T05:32:07.645Z,19.47
2018-06-16T05:34:37.005Z,18.43
2018-06-16T05:37:06.449Z,17.40
2018-06-16T05:39:35.860Z,17.00
2018-06-16T05:42:05.385Z,15.37
2018-06-16T05:44:34.862Z,14.97
2018-06-16T05:47:04.239Z,18.90
2018-06-16T05:49:33.647Z,12.63
2018-06-16T05:52:03.074Z,11.43
2018-06-16T05:54:32.490Z,10.37
2018-06-16T05:57:01.873Z,9.37
2018-06-16T05:59:31.326Z,8.63
2018-06-16T06:02:00.819Z,7.70
2018-06-16T06:04:30.271Z,8.80
2018-06-16T06:06:59.700Z,9.47
2018-06-16T06:09:29.144Z,10.60
2018-06-16T06:11:58.484Z,8.83
2018-06-16T06:14:27.868Z,8.53
2018-06-16T06:16:57.366Z,9.60
2018-06-16T06:19:26.729Z,10.33
2018-06-16T06:21:56.100Z,11.27
2018-06-16T06:24:25.772Z,11.47
2018-06-16T06:26:55.239Z,13.77
2018-06-16T06:29:24.616Z,9.40
2018-06-16T06:31:54.011Z,7.63
2018-06-16T06:34:23.430Z,6.60
2018-06-16T06:36:52.816Z,5.23
2018-06-16T06:39:22.272Z,5.40
2018-06-16T06:41:51.701Z,4.20
2018-06-16T06:44:21.193Z,3.30
2018-06-16T06:46:50.612Z,4.00
2018-06-16T06:49:20.103Z,4.20
2018-06-16T06:51:49.597Z,4.27
2018-06-16T06:54:19.062Z,4.57
2018-06-16T06:56:48.542Z,5.73
2018-06-16T06:59:17.974Z,10.63
2018-06-16T07:01:47.379Z,6.37
2018-06-16T07:04:16.828Z,7.90
2018-06-16T07:06:46.231Z,9.37
2018-06-16T07:09:15.685Z,8.73
2018-06-16T07:11:45.049Z,9.47
2018-06-16T07:14:14.500Z,13.30
2018-06-16T07:16:43.969Z,9.60
2018-06-16T07:19:13.419Z,8.90
2018-06-16T07:21:42.856Z,11.27
2018-06-16T07:24:12.247Z,14.30
2018-06-16T07:26:41.669Z,10.60
2018-06-16T07:29:11.148Z,11.07
2018-06-16T07:31:40.513Z,9.10
2018-06-16T07:34:09.891Z,17.37
2018-06-16T07:36:39.326Z,9.63
2018-06-16T07:39:09.945Z,16.27
2018-06-16T07:41:39.443Z,11.23
2018-06-16T07:44:08.962Z,15.80
2018-06-16T07:46:38.311Z,14.20
2018-06-16T07:49:07.779Z,13.40
2018-06-16T07:51:37.162Z,14.17
2018-06-16T07:54:06.627Z,15.30
2018-06-16T07:56:36.139Z,14.37
2018-06-16T07:59:05.606Z,14.83
2018-06-16T08:01:35.027Z,13.13
2018-06-16T08:04:04.433Z,16.90
2018-06-16T08:06:33.886Z,14.00
2018-06-16T08:09:04.066Z,12.53
2018-06-16T08:11:33.516Z,13.50
2018-06-16T08:14:03.608Z,16.40
2018-06-16T08:16:33.011Z,14.57
2018-06-16T08:19:02.484Z,13.00
2018-06-16T08:21:31.840Z,17.60
2018-06-16T08:24:01.444Z,12.53
2018-06-16T08:26:30.836Z,15.70
2018-06-16T08:29:00.312Z,10.50
2018-06-16T08:31:29.666Z,12.87
2018-06-16T08:33:59.112Z,22.20
2018-06-16T08:36:28.579Z,11.57
2018-06-16T08:38:58.035Z,11.43
2018-06-16T08:41:27.521Z,10.07
2018-06-16T08:43:56.936Z,8.93
2018-06-16T08:46:26.400Z,7.83
2018-06-16T08:48:55.877Z,7.63
2018-06-16T08:51:25.292Z,7.20
2018-06-16T08:53:54.748Z,6.67
2018-06-16T08:56:24.164Z,10.63
2018-06-16T08:58:53.556Z,7.10
2018-06-16T09:01:22.939Z,8.80
2018-06-16T09:03:52.344Z,7.47
2018-06-16T09:06:21.746Z,8.27
2018-06-16T09:08:51.117Z,8.50
2018-06-16T09:11:20.526Z,8.37
2018-06-16T09:13:50.152Z,8.50
2018-06-16T09:16:19.462Z,7.30
2018-06-16T09:18:49.136Z,11.63
2018-06-16T09:21:18.548Z,7.70
2018-06-16T09:23:47.941Z,9.77
2018-06-16T09:26:17.385Z,9.60
2018-06-16T09:28:46.766Z,8.47
2018-06-16T09:31:16.185Z,5.93
2018-06-16T09:33:45.612Z,5.17
2018-06-16T09:36:14.986Z,5.47
2018-06-16T09:38:44.411Z,6.87
2018-06-16T09:41:13.789Z,5.20
2018-06-16T09:43:43.296Z,5.00
2018-06-16T09:46:12.724Z,6.20
2018-06-16T09:48:42.286Z,8.13
2018-06-16T09:51:11.664Z,6.97
2018-06-16T09:53:41.120Z,6.50
2018-06-16T09:56:10.493Z,7.90
2018-06-16T09:58:39.892Z,6.93
2018-06-16T10:01:09.297Z,5.30
2018-06-16T10:03:38.709Z,4.80
2018-06-16T10:06:08.103Z,8.33
2018-06-16T10:08:37.533Z,5.53
2018-06-16T10:11:07.079Z,8.20
2018-06-16T10:13:36.531Z,4.50
2018-06-16T10:16:06.025Z,3.93
2018-06-16T10:18:35.486Z,4.60
2018-06-16T10:21:04.920Z,3.80
2018-06-16T10:23:34.456Z,3.10
2018-06-16T10:26:03.812Z,3.80
2018-06-16T10:28:33.280Z,4.50
2018-06-16T10:31:02.697Z,4.60
2018-06-16T10:33:32.122Z,6.10
2018-06-16T10:36:01.565Z,6.30
2018-06-16T10:38:30.945Z,2.83
2018-06-16T10:41:00.167Z,3.20
2018-06-16T10:43:29.614Z,4.50
2018-06-16T10:45:59.020Z,3.57
2018-06-16T10:48:28.420Z,5.50
2018-06-16T10:50:57.867Z,2.97
2018-06-16T10:53:27.295Z,9.57
2018-06-16T10:55:56.784Z,3.57
2018-06-16T10:58:26.141Z,4.80
2018-06-16T11:00:55.599Z,4.10
2018-06-16T11:03:25.044Z,4.00
2018-06-16T11:05:54.585Z,4.67
2018-06-16T11:08:24.126Z,6.57
2018-06-16T11:10:53.569Z,5.20
2018-06-16T11:13:23.011Z,4.97
2018-06-16T11:15:52.408Z,5.33
2018-06-16T11:18:21.923Z,7.60
2018-06-16T11:20:51.336Z,5.33
2018-06-16T11:23:20.727Z,7.80
2018-06-16T11:25:50.114Z,4.37
2018-06-16T11:28:19.564Z,6.40
2018-06-16T11:30:48.997Z,8.73
2018-06-16T11:33:18.386Z,4.83
2018-06-16T11:35:47.817Z,6.23
2018-06-16T11:38:17.226Z,6.07
2018-06-16T11:40:46.619Z,5.17
2018-06-16T11:43:16.057Z,5.10
2018-06-16T11:45:45.506Z,4.20
2018-06-16T11:48:14.963Z,5.50
2018-06-16T11:50:44.437Z,5.17
2018-06-16T11:53:13.887Z,4.43
2018-06-16T11:55:43.244Z,7.53
2018-06-16T11:58:12.675Z,4.40
2018-06-16T12:00:42.000Z,6.40
2018-06-16T12:03:11.465Z,4.60
2018-06-16T12:05:40.855Z,4.70
2018-06-16T12:08:10.325Z,7.20
2018-06-16T12:10:39.747Z,8.40
2018-06-16T12:13:09.284Z,5.67
2018-06-16T12:15:38.729Z,5.20
2018-06-16T12:18:08.201Z,3.83
2018-06-16T12:20:38.174Z,4.37
2018-06-16T12:23:07.652Z,6.77
2018-06-16T12:25:37.065Z,3.47
2018-06-16T12:28:06.523Z,4.27
2018-06-16T12:30:36.013Z,4.43
2018-06-16T12:33:05.648Z,3.40
2018-06-16T12:35:35.089Z,6.20
2018-06-16T12:38:04.612Z,2.37
2018-06-16T12:40:34.050Z,4.03
2018-06-16T12:43:03.567Z,2.33
2018-06-16T12:45:32.980Z,4.00
2018-06-16T12:48:02.565Z,3.13
2018-06-16T12:50:31.982Z,6.40
2018-06-16T12:53:01.395Z,3.27
2018-06-16T12:55:30.848Z,2.80
2018-06-16T12:58:00.289Z,5.97
2018-06-16T13:00:29.648Z,3.50
2018-06-16T13:02:59.038Z,3.40
2018-06-16T13:05:28.483Z,2.90
2018-06-16T13:07:57.969Z,3.93
2018-06-16T13:10:27.439Z,4.43
2018-06-16T13:12:56.861Z,3.07
2018-06-16T13:15:26.336Z,8.83
2018-06-16T13:17:55.741Z,2.87
2018-06-16T13:20:25.152Z,2.97
2018-06-16T13:22:56.089Z,2.83
2018-06-16T13:25:25.454Z,2.80
2018-06-16T13:27:54.957Z,2.83
2018-06-16T13:30:24.684Z,2.67
2018-06-16T13:32:54.126Z,3.20
2018-06-16T13:35:23.523Z,4.23
2018-06-16T13:37:53.036Z,3.67
2018-06-16T13:40:22.460Z,3.60
2018-06-16T13:42:51.846Z,4.97
2018-06-16T13:45:21.346Z,3.67
2018-06-16T13:47:50.871Z,2.97
2018-06-16T13:50:20.249Z,3.57
2018-06-16T13:52:49.703Z,4.30
2018-06-16T13:55:19.136Z,4.37
2018-06-16T13:57:48.579Z,3.83
2018-06-16T14:00:18.041Z,5.37
2018-06-16T14:02:47.488Z,4.20
2018-06-16T14:05:16.898Z,2.50
2018-06-16T14:07:46.328Z,7.27
2018-06-16T14:10:15.700Z,3.10
2018-06-16T14:12:45.093Z,2.53
2018-06-16T14:15:14.724Z,2.77
2018-06-16T14:17:44.160Z,1.97
2018-06-16T14:20:13.585Z,2.07
2018-06-16T14:22:43.172Z,1.90
2018-06-16T14:25:12.560Z,1.87
2018-06-16T14:27:41.979Z,4.80
2018-06-16T14:30:11.424Z,2.53
2018-06-16T14:32:40.822Z,2.20
2018-06-16T14:35:10.243Z,4.10
2018-06-16T14:37:39.799Z,2.43
2018-06-16T14:40:09.219Z,2.90
2018-06-16T14:42:38.588Z,2.23
2018-06-16T14:45:08.088Z,3.30
2018-06-16T14:47:37.532Z,2.40
2018-06-16T14:50:06.945Z,1.93
2018-06-16T14:52:39.111Z,1.67
2018-06-16T14:55:08.861Z,1.90
2018-06-16T14:57:38.217Z,2.13
2018-06-16T15:00:07.633Z,1.50
2018-06-16T15:02:37.073Z,1.67
2018-06-16T15:05:06.455Z,1.93
2018-06-16T15:07:35.799Z,1.70
2018-06-16T15:10:05.247Z,3.03
2018-06-16T15:12:34.648Z,3.47
2018-06-16T15:15:04.126Z,1.80
2018-06-16T15:17:33.514Z,2.10
2018-06-16T15:20:02.886Z,6.87
2018-06-16T15:22:32.339Z,1.93
2018-06-16T15:25:01.734Z,2.00
2018-06-16T15:27:31.154Z,1.83
2018-06-16T15:30:00.585Z,1.47
2018-06-16T15:32:30.071Z,2.20
2018-06-16T15:34:59.481Z,4.80
2018-06-16T15:37:28.941Z,2.17
2018-06-16T15:39:58.352Z,2.00
2018-06-16T15:42:27.781Z,2.03
2018-06-16T15:44:57.166Z,2.20
2018-06-16T15:47:26.590Z,1.70
2018-06-16T15:49:55.964Z,4.57
2018-06-16T15:52:25.408Z,2.27
2018-06-16T15:54:54.800Z,2.60
2018-06-16T15:57:24.219Z,2.60
2018-06-16T15:59:53.673Z,2.70
2018-06-16T16:02:23.104Z,2.87
2018-06-16T16:04:52.512Z,2.13
2018-06-16T16:07:22.093Z,2.37
2018-06-16T16:09:51.507Z,2.20
2018-06-16T16:12:20.931Z,3.90
2018-06-16T16:14:50.397Z,2.50
2018-06-16T16:17:19.871Z,2.27
2018-06-16T16:19:49.304Z,2.50
2018-06-16T16:22:18.736Z,3.40
2018-06-16T16:24:48.155Z,2.80
2018-06-16T16:27:17.591Z,2.80
2018-06-16T16:29:47.072Z,2.57
2018-06-16T16:32:16.530Z,2.87
2018-06-16T16:34:45.925Z,3.73
2018-06-16T16:37:15.316Z,2.50
2018-06-16T16:39:44.753Z,2.60
2018-06-16T16:42:14.195Z,2.67
2018-06-16T16:44:43.649Z,4.23
2018-06-16T16:47:13.184Z,2.70
2018-06-16T16:49:42.597Z,2.40
2018-06-16T16:52:12.030Z,2.60
2018-06-16T16:54:41.386Z,8.13
2018-06-16T16:57:10.804Z,4.87
2018-06-16T16:59:40.572Z,6.73
2018-06-16T17:02:10.085Z,5.93
2018-06-16T17:04:39.551Z,9.73
2018-06-16T17:07:08.927Z,6.07
2018-06-16T17:09:38.380Z,3.50
2018-06-16T17:12:07.776Z,3.60
2018-06-16T17:14:37.234Z,5.37
2018-06-16T17:17:06.682Z,6.00
2018-06-16T17:19:36.063Z,6.10
2018-06-16T17:22:05.553Z,4.93
2018-06-16T17:24:34.991Z,4.97
2018-06-16T17:27:04.426Z,4.23
2018-06-16T17:29:33.857Z,3.67
2018-06-16T17:32:03.352Z,4.20
2018-06-16T17:34:32.732Z,3.53
2018-06-16T17:37:02.084Z,3.03
2018-06-16T17:39:31.548Z,7.27
2018-06-16T17:42:01.017Z,5.30
2018-06-16T17:44:30.495Z,7.07
2018-06-16T17:46:59.934Z,5.40
2018-06-16T17:49:29.476Z,4.60
2018-06-16T17:51:58.912Z,10.60
2018-06-16T17:54:28.237Z,9.53
2018-06-16T17:56:57.582Z,4.83
2018-06-16T17:59:27.051Z,23.07
2018-06-16T18:01:56.379Z,5.07
2018-06-16T18:04:25.850Z,4.63
2018-06-16T18:06:55.339Z,6.47
2018-06-16T18:09:24.761Z,5.10
2018-06-16T18:11:54.204Z,3.00
2018-06-16T18:14:23.614Z,4.00
2018-06-16T18:16:52.984Z,3.20
2018-06-16T18:19:22.397Z,3.43
2018-06-16T18:21:51.766Z,5.23
2018-06-16T18:24:21.181Z,8.03
2018-06-16T18:26:50.570Z,4.10
2018-06-16T18:29:20.025Z,5.60
2018-06-16T18:31:49.415Z,3.20
2018-06-16T18:34:18.865Z,7.43
2018-06-16T18:36:48.282Z,3.70
2018-06-16T18:39:17.676Z,4.20
2018-06-16T18:41:47.243Z,3.60
2018-06-16T18:44:16.670Z,3.73
2018-06-16T18:46:46.079Z,7.30
2018-06-16T18:49:15.449Z,4.13
2018-06-16T18:51:45.342Z,3.63
2018-06-16T18:54:14.720Z,2.87
2018-06-16T18:56:44.138Z,3.13
2018-06-16T18:59:13.546Z,3.30
2018-06-16T19:01:43.107Z,3.93
2018-06-16T19:04:12.545Z,3.97
2018-06-16T19:06:41.980Z,3.33
2018-06-16T19:09:11.391Z,4.23
2018-06-16T19:11:41.292Z,7.90
2018-06-16T19:14:10.759Z,3.43
2018-06-16T19:16:40.109Z,5.97
2018-06-16T19:19:09.669Z,18.70
2018-06-16T19:21:39.164Z,13.53
2018-06-16T19:24:08.649Z,9.63
2018-06-16T19:26:38.009Z,7.40
2018-06-16T19:29:07.388Z,10.80
2018-06-16T19:31:37.199Z,10.17
2018-06-16T19:34:06.624Z,7.53
2018-06-16T19:36:36.088Z,5.13
2018-06-16T19:39:07.670Z,6.97
2018-06-16T19:41:37.139Z,6.80
2018-06-16T19:44:06.607Z,5.13
2018-06-16T19:46:36.039Z,6.80
2018-06-16T19:49:06.158Z,5.40
2018-06-16T19:51:35.635Z,5.73
2018-06-16T19:54:05.041Z,4.70
2018-06-16T19:56:34.454Z,9.43
2018-06-16T19:59:03.924Z,5.10
2018-06-16T20:01:33.336Z,10.50
2018-06-16T20:04:02.772Z,7.47
2018-06-16T20:06:32.240Z,13.33
2018-06-16T20:09:01.701Z,14.90
2018-06-16T20:11:31.133Z,8.33
2018-06-16T20:14:00.635Z,12.50
2018-06-16T20:16:30.057Z,8.27
2018-06-16T20:18:59.986Z,10.23
2018-06-16T20:21:29.411Z,11.63
2018-06-16T20:23:58.573Z,6.63
2018-06-16T20:26:27.995Z,8.50
2018-06-16T20:28:57.495Z,6.90
2018-06-16T20:31:27.013Z,7.77
2018-06-16T20:33:56.346Z,9.03
2018-06-16T20:36:25.734Z,16.03
2018-06-16T20:38:55.167Z,18.00
2018-06-16T20:41:24.515Z,16.07
2018-06-16T20:43:53.967Z,20.33
2018-06-16T20:46:23.410Z,18.80
2018-06-16T20:48:52.883Z,12.77
2018-06-16T20:51:22.357Z,18.20
2018-06-16T20:53:51.841Z,13.03
2018-06-16T20:56:21.274Z,13.00
2018-06-16T20:58:50.689Z,14.87
2018-06-16T21:01:20.092Z,26.30
2018-06-16T21:03:49.312Z,29.90
2018-06-16T21:06:18.687Z,21.37
2018-06-16T21:08:48.124Z,36.77
2018-06-16T21:11:17.552Z,66.00
2018-06-16T21:13:47.173Z,51.30
2018-06-16T21:16:16.722Z,29.63
2018-06-16T21:18:46.116Z,26.37
2018-06-16T21:21:15.721Z,26.00
2018-06-16T21:23:45.125Z,24.70
2018-06-16T21:26:14.541Z,22.40
2018-06-16T21:28:43.969Z,22.80
2018-06-16T21:31:13.413Z,21.63
2018-06-16T21:33:42.970Z,23.87
2018-06-16T21:36:12.332Z,27.37
2018-06-16T21:38:41.734Z,27.27
2018-06-16T21:41:11.214Z,26.50
2018-06-16T21:43:40.694Z,21.40
2018-06-16T21:46:10.209Z,18.30
2018-06-16T21:48:39.608Z,22.67
2018-06-16T21:51:09.064Z,17.63
2018-06-16T21:53:38.543Z,20.13
2018-06-16T21:56:07.981Z,22.20
2018-06-16T21:58:37.360Z,21.50
2018-06-16T22:01:06.901Z,20.03
2018-06-16T22:03:36.406Z,19.90
2018-06-16T22:06:05.940Z,17.63
2018-06-16T22:08:35.417Z,14.40
2018-06-16T22:11:05.220Z,15.80
2018-06-16T22:13:34.731Z,13.77
2018-06-16T22:16:04.250Z,13.07
2018-06-16T22:18:33.703Z,12.17
2018-06-16T22:21:03.263Z,12.37
2018-06-16T22:23:32.717Z,12.80
2018-06-16T22:26:02.143Z,11.17
2018-06-16T22:28:31.590Z,12.33
2018-06-16T22:31:01.042Z,12.27
2018-06-16T22:33:30.173Z,12.70
2018-06-16T22:35:59.689Z,13.03
2018-06-16T22:38:29.050Z,13.97
2018-06-16T22:40:58.521Z,15.10
2018-06-16T22:43:28.072Z,14.30
2018-06-16T22:45:57.479Z,15.93
2018-06-16T22:48:26.887Z,18.63
2018-06-16T22:50:56.303Z,16.07
2018-06-16T22:53:25.793Z,18.20
2018-06-16T22:55:55.168Z,20.60
2018-06-16T22:58:24.619Z,20.10
2018-06-16T23:00:54.054Z,19.73
2018-06-16T23:03:23.535Z,22.07
2018-06-16T23:05:52.945Z,21.20
2018-06-16T23:08:22.417Z,19.70
2018-06-16T23:10:51.809Z,18.63
2018-06-16T23:13:21.294Z,18.57
2018-06-16T23:15:50.678Z,24.77
2018-06-16T23:18:20.179Z,19.60
2018-06-16T23:20:49.690Z,16.40
2018-06-16T23:23:19.064Z,16.47
2018-06-16T23:25:48.556Z,18.10
2018-06-16T23:28:17.990Z,18.00
2018-06-16T23:30:47.468Z,17.03
2018-06-16T23:33:16.882Z,22.13
2018-06-16T23:35:46.377Z,21.60
2018-06-16T23:38:15.835Z,22.83
2018-06-16T23:40:44.933Z,18.97
2018-06-16T23:43:14.383Z,20.00
2018-06-16T23:45:43.867Z,17.80
2018-06-16T23:48:13.366Z,16.20
2018-06-16T23:50:42.788Z,16.40
2018-06-16T23:53:12.495Z,16.17
2018-06-16T23:55:42.168Z,18.60
2018-06-16T23:58:11.967Z,14.73
